createdAt,value
2022-12-04T00:00:15.378Z,23.63
2022-12-04T00:00:50.338Z,28.13
2022-12-04T00:01:24.361Z,23.80
2022-12-04T00:01:56.582Z,34.97
2022-12-04T00:02:32.882Z,28.23
2022-12-04T00:03:05.110Z,24.67
2022-12-04T00:03:37.750Z,23.80
2022-12-04T00:04:13.472Z,23.83
2022-12-04T00:04:45.661Z,37.13
2022-12-04T00:05:17.841Z,19.65
2022-12-04T00:05:52.521Z,29.02
2022-12-04T00:06:25.583Z,22.85
2022-12-04T00:06:59.045Z,25.30
2022-12-04T00:07:34.201Z,11.85
2022-12-04T00:08:06.533Z,14.75
2022-12-04T00:08:39.307Z,25.33
2022-12-04T00:09:14.143Z,18.60
2022-12-04T00:09:48.830Z,23.35
2022-12-04T00:10:20.922Z,19.98
2022-12-04T00:10:55.607Z,23.75
2022-12-04T00:11:30.486Z,22.52
2022-12-04T00:12:05.159Z,23.80
2022-12-04T00:12:37.249Z,18.73
2022-12-04T00:13:09.553Z,16.58
2022-12-04T00:13:44.797Z,25.30
2022-12-04T00:14:16.943Z,26.20
2022-12-04T00:15:23.341Z,27.48
2022-12-04T00:15:45.186Z,18.35
2022-12-04T00:16:19.265Z,16.35
2022-12-04T00:16:51.514Z,26.80
2022-12-04T00:17:26.266Z,23.08
2022-12-04T00:17:58.362Z,16.92
2022-12-04T00:18:30.461Z,21.17
2022-12-04T00:19:05.143Z,23.73
2022-12-04T00:19:37.237Z,36.80
2022-12-04T00:20:10.194Z,13.70
2022-12-04T00:20:44.870Z,20.65
2022-12-04T00:21:18.188Z,24.05
2022-12-04T00:21:53.584Z,21.50
2022-12-04T00:22:25.785Z,21.95
2022-12-04T00:22:57.833Z,23.98
2022-12-04T00:23:29.914Z,37.33
2022-12-04T00:24:04.748Z,28.65
2022-12-04T00:24:36.890Z,26.65
2022-12-04T00:25:11.628Z,22.73
2022-12-04T00:25:48.798Z,26.25
2022-12-04T00:26:22.474Z,24.20
2022-12-04T00:26:54.579Z,31.63
2022-12-04T00:27:29.252Z,29.08
2022-12-04T00:28:01.385Z,22.63
2022-12-04T00:28:33.918Z,23.52
2022-12-04T00:29:08.626Z,21.80
2022-12-04T00:29:40.719Z,23.25
2022-12-04T00:30:13.804Z,21.00
2022-12-04T00:30:50.008Z,23.30
2022-12-04T00:31:25.308Z,23.27
2022-12-04T00:31:57.485Z,21.05
2022-12-04T00:32:33.020Z,19.77
2022-12-04T00:33:05.107Z,22.13
2022-12-04T00:33:38.781Z,20.55
2022-12-04T00:34:13.750Z,23.63
2022-12-04T00:34:45.931Z,34.90
2022-12-04T00:35:18.209Z,19.73
2022-12-04T00:36:00.090Z,20.15
2022-12-04T00:36:32.323Z,26.15
2022-12-04T00:37:04.433Z,19.48
2022-12-04T00:37:39.106Z,19.63
2022-12-04T00:38:11.201Z,23.40
2022-12-04T00:38:44.687Z,24.88
2022-12-04T00:39:19.372Z,32.60
2022-12-04T00:39:51.517Z,20.27
2022-12-04T00:40:26.267Z,28.40
2022-12-04T00:41:01.048Z,20.73
2022-12-04T00:41:33.649Z,43.15
2022-12-04T00:42:08.399Z,31.33
2022-12-04T00:42:40.523Z,25.73
2022-12-04T00:43:12.600Z,25.83
2022-12-04T00:43:47.909Z,25.73
2022-12-04T00:44:19.973Z,24.70
2022-12-04T00:44:52.182Z,37.22
2022-12-04T00:45:27.018Z,24.73
2022-12-04T00:45:59.565Z,23.83
2022-12-04T00:46:31.725Z,20.98
2022-12-04T00:47:06.526Z,24.42
2022-12-04T00:47:38.585Z,24.35
2022-12-04T00:48:10.717Z,21.35
2022-12-04T00:48:46.110Z,22.05
2022-12-04T00:49:18.194Z,24.30
2022-12-04T00:49:50.352Z,38.95
2022-12-04T00:50:25.428Z,24.15
2022-12-04T00:51:02.234Z,28.25
2022-12-04T00:51:36.981Z,25.83
2022-12-04T00:52:09.036Z,34.58
2022-12-04T00:52:41.159Z,25.13
2022-12-04T00:53:16.107Z,30.73
2022-12-04T00:53:48.550Z,31.80
2022-12-04T00:54:20.668Z,28.38
2022-12-04T00:54:55.543Z,36.33
2022-12-04T00:55:30.258Z,22.58
2022-12-04T00:56:04.699Z,21.85
2022-12-04T00:56:39.448Z,23.83
2022-12-04T00:57:11.585Z,31.02
2022-12-04T00:57:43.688Z,29.42
2022-12-04T00:58:18.415Z,24.08
2022-12-04T00:58:52.511Z,21.42
2022-12-04T00:59:24.572Z,27.60
2022-12-04T00:59:59.344Z,21.67
2022-12-04T01:00:32.194Z,18.65
2022-12-04T01:01:06.208Z,17.52
2022-12-04T01:01:41.021Z,24.63
2022-12-04T01:02:13.148Z,24.95
2022-12-04T01:02:45.638Z,22.63
2022-12-04T01:03:20.402Z,27.38
2022-12-04T01:03:54.008Z,18.42
2022-12-04T01:04:26.153Z,27.55
2022-12-04T01:05:00.843Z,28.13
2022-12-04T01:05:37.885Z,20.45
2022-12-04T01:06:18.878Z,25.58
2022-12-04T01:06:53.694Z,22.20
2022-12-04T01:07:25.756Z,29.55
2022-12-04T01:07:58.067Z,24.20
2022-12-04T01:08:32.809Z,50.63
2022-12-04T01:09:06.009Z,30.23
2022-12-04T01:09:38.128Z,27.55
2022-12-04T01:10:15.745Z,28.88
2022-12-04T01:10:50.617Z,26.75
2022-12-04T01:11:24.174Z,28.13
2022-12-04T01:11:58.932Z,26.45
2022-12-04T01:12:31.059Z,22.42
2022-12-04T01:13:03.150Z,23.02
2022-12-04T01:13:37.820Z,25.15
2022-12-04T01:14:10.061Z,20.52
2022-12-04T01:14:44.770Z,28.95
2022-12-04T01:15:17.159Z,32.33
2022-12-04T01:15:49.534Z,26.88
2022-12-04T01:16:26.028Z,23.85
2022-12-04T01:16:58.271Z,26.38
2022-12-04T01:17:30.439Z,21.50
2022-12-04T01:18:05.089Z,19.35
2022-12-04T01:18:37.206Z,22.35
2022-12-04T01:19:12.091Z,21.23
2022-12-04T01:19:46.915Z,36.45
2022-12-04T01:20:19.050Z,24.13
2022-12-04T01:20:52.673Z,22.63
2022-12-04T01:21:27.463Z,21.60
2022-12-04T01:21:59.583Z,20.70
2022-12-04T01:22:31.843Z,23.17
2022-12-04T01:23:03.938Z,22.90
2022-12-04T01:23:38.585Z,45.53
2022-12-04T01:24:10.969Z,24.20
2022-12-04T01:24:43.437Z,24.75
2022-12-04T01:25:18.169Z,34.10
2022-12-04T01:25:55.505Z,25.33
2022-12-04T01:26:28.100Z,44.28
2022-12-04T01:27:02.814Z,26.63
2022-12-04T01:27:35.305Z,28.27
2022-12-04T01:28:07.387Z,25.13
2022-12-04T01:28:39.800Z,20.75
2022-12-04T01:29:14.577Z,26.20
2022-12-04T01:29:46.715Z,28.23
2022-12-04T01:30:18.995Z,43.38
2022-12-04T01:31:04.361Z,27.02
2022-12-04T01:31:36.750Z,28.05
2022-12-04T01:32:08.928Z,23.60
2022-12-04T01:32:43.740Z,27.80
2022-12-04T01:33:15.811Z,24.75
2022-12-04T01:33:49.096Z,22.85
2022-12-04T01:34:25.345Z,38.08
2022-12-04T01:34:57.585Z,18.52
2022-12-04T01:35:29.653Z,24.60
2022-12-04T01:36:06.789Z,23.33
2022-12-04T01:36:38.920Z,25.38
2022-12-04T01:37:13.676Z,20.60
2022-12-04T01:37:45.825Z,26.50
2022-12-04T01:38:17.914Z,24.45
2022-12-04T01:38:52.752Z,25.05
2022-12-04T01:39:24.830Z,28.15
2022-12-04T01:39:57.312Z,17.98
2022-12-04T01:40:29.553Z,25.02
2022-12-04T01:41:08.203Z,38.22
2022-12-04T01:41:40.360Z,31.35
2022-12-04T01:42:13.614Z,23.85
2022-12-04T01:42:48.306Z,32.25
2022-12-04T01:43:21.814Z,27.52
2022-12-04T01:44:11.514Z,25.98
2022-12-04T01:45:07.354Z,21.85
2022-12-04T01:45:41.916Z,46.13
2022-12-04T01:46:14.194Z,23.35
2022-12-04T01:46:50.443Z,27.83
2022-12-04T01:47:22.545Z,23.90
2022-12-04T01:47:58.250Z,49.60
2022-12-04T01:48:35.584Z,27.23
2022-12-04T01:49:10.151Z,27.13
2022-12-04T01:49:47.252Z,34.25
2022-12-04T01:50:21.956Z,27.27
2022-12-04T01:50:58.742Z,35.13
2022-12-04T01:51:35.367Z,26.42
2022-12-04T01:52:15.034Z,29.95
2022-12-04T01:52:47.146Z,28.05
2022-12-04T01:53:20.447Z,31.02
2022-12-04T01:53:57.504Z,22.20
2022-12-04T01:54:32.640Z,23.67
2022-12-04T01:55:05.812Z,26.23
2022-12-04T01:55:40.725Z,37.15
2022-12-04T01:56:17.128Z,32.50
2022-12-04T01:56:53.481Z,32.08
2022-12-04T01:57:29.489Z,21.90
2022-12-04T01:58:02.051Z,17.80
2022-12-04T01:58:39.874Z,39.67
2022-12-04T01:59:17.136Z,19.40
2022-12-04T01:59:52.697Z,26.38
2022-12-04T02:00:25.208Z,34.17
2022-12-04T02:01:07.865Z,28.88
2022-12-04T02:01:49.428Z,21.17
2022-12-04T02:02:26.305Z,18.38
2022-12-04T02:02:58.880Z,18.80
2022-12-04T02:03:33.918Z,24.50
2022-12-04T02:04:06.302Z,21.45
2022-12-04T02:04:40.437Z,37.88
2022-12-04T02:05:14.027Z,14.90
2022-12-04T02:05:48.760Z,23.60
2022-12-04T02:06:21.014Z,25.48
2022-12-04T02:06:53.153Z,28.88
2022-12-04T02:07:27.909Z,21.52
2022-12-04T02:08:04.852Z,24.52
2022-12-04T02:08:40.535Z,44.92
2022-12-04T02:09:12.761Z,21.95
2022-12-04T02:09:45.617Z,23.30
2022-12-04T02:10:24.692Z,23.58
2022-12-04T02:11:10.338Z,25.35
2022-12-04T02:11:54.784Z,22.40
2022-12-04T02:12:33.054Z,27.77
2022-12-04T02:13:13.442Z,28.08
2022-12-04T02:14:33.284Z,22.83
2022-12-04T02:15:17.395Z,24.27
2022-12-04T02:15:57.910Z,29.35
2022-12-04T02:16:42.273Z,24.73
2022-12-04T02:17:22.656Z,22.58
2022-12-04T02:18:03.447Z,23.38
2022-12-04T02:18:47.756Z,18.83
2022-12-04T02:19:43.021Z,52.75
2022-12-04T02:20:25.854Z,27.35
2022-12-04T02:21:03.358Z,23.88
2022-12-04T02:21:38.838Z,29.25
2022-12-04T02:22:27.357Z,26.48
2022-12-04T02:23:26.014Z,25.30
2022-12-04T02:24:24.334Z,27.83
2022-12-04T02:25:03.106Z,29.55
2022-12-04T02:25:45.409Z,47.55
2022-12-04T02:26:32.766Z,29.15
2022-12-04T02:27:16.954Z,28.17
2022-12-04T02:28:02.599Z,27.45
2022-12-04T02:28:43.259Z,31.00
2022-12-04T02:29:25.995Z,31.02
2022-12-04T02:30:01.392Z,26.70
2022-12-04T02:30:40.032Z,40.35
2022-12-04T02:31:18.541Z,28.75
2022-12-04T02:31:55.893Z,27.33
2022-12-04T02:32:38.862Z,30.30
2022-12-04T02:33:19.303Z,27.95
2022-12-04T02:34:02.093Z,28.52
2022-12-04T02:34:42.050Z,29.92
2022-12-04T02:35:22.051Z,24.88
2022-12-04T02:36:01.847Z,20.33
2022-12-04T02:36:39.343Z,20.30
2022-12-04T02:37:18.826Z,28.65
2022-12-04T02:37:56.806Z,27.60
2022-12-04T02:38:35.769Z,27.63
2022-12-04T02:39:14.058Z,23.42
2022-12-04T02:39:52.488Z,25.40
2022-12-04T02:40:29.415Z,25.33
2022-12-04T02:41:10.569Z,21.42
2022-12-04T02:41:49.095Z,20.75
2022-12-04T02:42:26.898Z,31.02
2022-12-04T02:43:11.512Z,28.90
2022-12-04T02:43:46.953Z,25.35
2022-12-04T02:44:24.927Z,28.10
2022-12-04T02:45:00.672Z,30.40
2022-12-04T02:45:39.846Z,45.00
2022-12-04T02:46:22.436Z,25.15
2022-12-04T02:46:58.522Z,18.95
2022-12-04T02:47:32.395Z,25.52
2022-12-04T02:48:10.254Z,21.33
2022-12-04T02:48:46.814Z,24.48
2022-12-04T02:49:23.967Z,27.13
2022-12-04T02:50:02.058Z,21.38
2022-12-04T02:50:37.644Z,27.38
2022-12-04T02:51:14.710Z,24.38
2022-12-04T02:51:52.113Z,27.63
2022-12-04T02:52:31.510Z,31.20
2022-12-04T02:53:07.811Z,19.83
2022-12-04T02:53:48.733Z,28.48
2022-12-04T02:54:25.824Z,25.67
2022-12-04T02:55:06.864Z,29.48
2022-12-04T02:55:47.778Z,16.27
2022-12-04T02:56:24.525Z,22.42
2022-12-04T02:57:01.570Z,16.70
2022-12-04T02:57:38.759Z,28.30
2022-12-04T02:58:16.933Z,27.38
2022-12-04T02:58:55.679Z,32.67
2022-12-04T02:59:32.304Z,35.22
2022-12-04T03:00:08.353Z,27.05
2022-12-04T03:00:46.849Z,37.58
2022-12-04T03:01:25.084Z,25.27
2022-12-04T03:02:03.281Z,20.80
2022-12-04T03:02:42.270Z,33.80
2022-12-04T03:03:19.158Z,24.80
2022-12-04T03:03:57.729Z,27.88
2022-12-04T03:04:33.653Z,43.40
2022-12-04T03:05:10.465Z,23.70
2022-12-04T03:05:49.900Z,19.23
2022-12-04T03:06:26.622Z,29.15
2022-12-04T03:07:03.126Z,23.13
2022-12-04T03:07:40.362Z,28.45
2022-12-04T03:08:19.047Z,26.67
2022-12-04T03:08:55.588Z,26.00
2022-12-04T03:09:36.731Z,24.50
2022-12-04T03:10:14.501Z,30.52
2022-12-04T03:10:51.142Z,29.52
2022-12-04T03:11:27.651Z,71.45
2022-12-04T03:12:07.295Z,22.55
2022-12-04T03:12:44.572Z,26.55
2022-12-04T03:13:25.600Z,16.25
2022-12-04T03:14:02.513Z,40.33
2022-12-04T03:14:39.252Z,28.70
2022-12-04T03:15:19.948Z,30.88
2022-12-04T03:15:56.539Z,26.85
2022-12-04T03:16:33.036Z,25.30
2022-12-04T03:17:12.106Z,34.70
2022-12-04T03:17:51.174Z,30.85
2022-12-04T03:18:29.659Z,25.20
2022-12-04T03:19:08.263Z,26.10
2022-12-04T03:19:48.305Z,45.28
2022-12-04T03:20:21.939Z,23.27
2022-12-04T03:21:01.025Z,24.65
2022-12-04T03:21:40.800Z,22.73
2022-12-04T03:22:16.649Z,26.65
2022-12-04T03:22:53.473Z,28.15
2022-12-04T03:23:33.990Z,24.60
2022-12-04T03:24:13.758Z,27.42
2022-12-04T03:24:50.325Z,45.08
2022-12-04T03:25:29.147Z,24.23
2022-12-04T03:26:05.001Z,22.90
2022-12-04T03:26:42.332Z,29.00
2022-12-04T03:27:20.385Z,22.10
2022-12-04T03:27:56.853Z,23.95
2022-12-04T03:28:38.950Z,24.50
2022-12-04T03:29:16.909Z,28.60
2022-12-04T03:29:55.250Z,35.97
2022-12-04T03:30:38.110Z,42.58
2022-12-04T03:31:11.651Z,31.60
2022-12-04T03:31:46.947Z,30.50
2022-12-04T03:32:29.076Z,28.65
2022-12-04T03:33:08.063Z,22.42
2022-12-04T03:33:46.308Z,25.27
2022-12-04T03:34:25.139Z,24.30
2022-12-04T03:35:01.480Z,32.88
2022-12-04T03:35:40.559Z,22.42
2022-12-04T03:36:18.539Z,35.75
2022-12-04T03:36:56.058Z,26.98
2022-12-04T03:37:38.946Z,28.45
2022-12-04T03:38:18.587Z,20.42
2022-12-04T03:38:58.148Z,28.88
2022-12-04T03:39:38.163Z,24.15
2022-12-04T03:40:22.629Z,27.05
2022-12-04T03:41:01.778Z,25.25
2022-12-04T03:41:50.069Z,43.95
2022-12-04T03:42:28.634Z,25.05
2022-12-04T03:43:04.608Z,21.75
2022-12-04T03:43:49.261Z,20.70
2022-12-04T03:44:30.560Z,31.73
2022-12-04T03:45:09.449Z,27.77
2022-12-04T03:45:50.896Z,32.63
2022-12-04T03:46:28.296Z,28.23
2022-12-04T03:47:05.395Z,31.42
2022-12-04T03:47:45.922Z,26.83
2022-12-04T03:48:23.331Z,24.77
2022-12-04T03:49:02.482Z,30.05
2022-12-04T03:49:46.688Z,35.13
2022-12-04T03:50:26.426Z,28.83
2022-12-04T03:51:05.067Z,32.75
2022-12-04T03:51:42.374Z,31.45
2022-12-04T03:52:20.915Z,35.33
2022-12-04T03:53:00.455Z,31.38
2022-12-04T03:53:40.997Z,28.95
2022-12-04T03:54:18.214Z,32.63
2022-12-04T03:54:55.943Z,29.02
2022-12-04T03:55:33.954Z,36.55
2022-12-04T03:56:13.550Z,30.55
2022-12-04T03:56:51.798Z,33.65
2022-12-04T03:57:30.165Z,24.85
2022-12-04T03:58:09.487Z,29.35
2022-12-04T03:58:47.413Z,28.85
2022-12-04T03:59:27.041Z,33.10
2022-12-04T04:00:06.495Z,25.98
2022-12-04T04:00:41.911Z,39.45
2022-12-04T04:01:19.302Z,29.98
2022-12-04T04:01:52.716Z,31.27
2022-12-04T04:02:30.564Z,29.88
2022-12-04T04:03:11.696Z,33.10
2022-12-04T04:03:47.762Z,30.70
2022-12-04T04:04:26.414Z,32.92
2022-12-04T04:05:04.177Z,33.55
2022-12-04T04:05:38.507Z,25.02
2022-12-04T04:06:14.608Z,29.58
2022-12-04T04:06:53.613Z,20.27
2022-12-04T04:07:35.560Z,26.00
2022-12-04T04:08:31.171Z,25.92
2022-12-04T04:09:15.753Z,30.23
2022-12-04T04:09:50.775Z,23.50
2022-12-04T04:10:25.430Z,33.92
2022-12-04T04:11:05.839Z,22.17
2022-12-04T04:12:17.469Z,30.92
2022-12-04T04:13:09.875Z,39.00
2022-12-04T04:14:06.887Z,33.83
2022-12-04T04:14:58.607Z,44.47
2022-12-04T04:15:45.826Z,34.67
2022-12-04T04:16:36.880Z,25.90
2022-12-04T04:17:32.266Z,26.92
2022-12-04T04:18:22.182Z,26.17
2022-12-04T04:19:10.787Z,30.60
2022-12-04T04:20:00.041Z,37.17
2022-12-04T04:20:52.368Z,29.92
2022-12-04T04:21:45.189Z,26.17
2022-12-04T04:22:34.476Z,29.88
2022-12-04T04:23:36.443Z,28.73
2022-12-04T04:24:18.730Z,31.67
2022-12-04T04:24:55.320Z,23.85
2022-12-04T04:25:29.192Z,54.33
2022-12-04T04:26:06.772Z,25.58
2022-12-04T04:26:44.054Z,23.20
2022-12-04T04:27:16.214Z,27.10
2022-12-04T04:27:55.241Z,35.55
2022-12-04T04:28:32.331Z,24.98
2022-12-04T04:29:07.116Z,24.20
2022-12-04T04:29:43.334Z,27.83
2022-12-04T04:30:17.891Z,35.65
2022-12-04T04:30:50.045Z,23.65
2022-12-04T04:31:30.045Z,26.98
2022-12-04T04:32:08.589Z,24.70
2022-12-04T04:32:48.286Z,29.63
2022-12-04T04:33:21.894Z,32.97
2022-12-04T04:33:59.795Z,31.58
2022-12-04T04:34:43.818Z,31.38
2022-12-04T04:35:21.233Z,30.30
2022-12-04T04:35:57.735Z,40.25
2022-12-04T04:36:40.693Z,29.10
2022-12-04T04:37:21.074Z,18.45
2022-12-04T04:38:01.837Z,34.33
2022-12-04T04:38:45.629Z,53.08
2022-12-04T04:39:25.598Z,30.80
2022-12-04T04:40:08.079Z,23.52
2022-12-04T04:40:48.595Z,22.90
2022-12-04T04:41:27.332Z,38.58
2022-12-04T04:42:07.121Z,31.20
2022-12-04T04:42:45.900Z,29.38
2022-12-04T04:43:27.700Z,38.20
2022-12-04T04:44:12.076Z,28.42
2022-12-04T04:44:52.811Z,25.20
2022-12-04T04:45:29.919Z,35.05
2022-12-04T04:46:06.134Z,33.65
2022-12-04T04:46:45.459Z,26.95
2022-12-04T04:47:21.877Z,33.90
2022-12-04T04:47:58.769Z,45.58
2022-12-04T04:48:38.662Z,22.00
2022-12-04T04:49:14.194Z,45.83
2022-12-04T04:49:47.609Z,57.08
2022-12-04T04:50:23.713Z,37.25
2022-12-04T04:50:56.643Z,27.77
2022-12-04T04:51:31.175Z,35.65
2022-12-04T04:52:06.204Z,32.72
2022-12-04T04:52:41.786Z,28.00
2022-12-04T04:53:19.944Z,24.95
2022-12-04T04:53:58.389Z,39.10
2022-12-04T04:54:34.041Z,45.90
2022-12-04T04:55:08.271Z,26.52
2022-12-04T04:55:43.777Z,24.58
2022-12-04T04:56:16.282Z,20.40
2022-12-04T04:56:48.722Z,36.85
2022-12-04T04:57:31.284Z,21.55
2022-12-04T04:58:11.407Z,24.33
2022-12-04T04:58:46.434Z,24.45
2022-12-04T04:59:21.186Z,27.15
2022-12-04T04:59:53.823Z,20.08
2022-12-04T05:00:29.054Z,25.92
2022-12-04T05:01:04.272Z,30.30
2022-12-04T05:01:38.597Z,31.55
2022-12-04T05:02:13.525Z,29.00
2022-12-04T05:02:45.757Z,32.22
2022-12-04T05:03:18.008Z,29.00
2022-12-04T05:03:52.924Z,33.95
2022-12-04T05:04:25.015Z,34.22
2022-12-04T05:04:57.165Z,33.22
2022-12-04T05:05:31.830Z,35.83
2022-12-04T05:06:04.028Z,21.95
2022-12-04T05:06:36.281Z,33.08
2022-12-04T05:07:10.996Z,28.92
2022-12-04T05:07:43.232Z,27.00
2022-12-04T05:08:15.491Z,27.77
2022-12-04T05:08:50.230Z,29.88
2022-12-04T05:09:22.410Z,29.23
2022-12-04T05:09:54.787Z,34.95
2022-12-04T05:10:29.676Z,27.35
2022-12-04T05:11:02.012Z,29.05
2022-12-04T05:11:34.169Z,56.83
2022-12-04T05:12:09.242Z,36.90
2022-12-04T05:12:41.353Z,27.85
2022-12-04T05:13:14.416Z,33.42
2022-12-04T05:13:49.070Z,27.05
2022-12-04T05:14:23.706Z,48.25
2022-12-04T05:14:55.907Z,32.35
2022-12-04T05:15:30.545Z,28.35
2022-12-04T05:16:05.300Z,28.90
2022-12-04T05:16:39.350Z,23.25
2022-12-04T05:17:14.049Z,37.78
2022-12-04T05:17:46.130Z,27.10
2022-12-04T05:18:18.297Z,48.85
2022-12-04T05:19:05.260Z,49.90
2022-12-04T05:19:52.435Z,80.38
2022-12-04T05:20:27.204Z,49.83
2022-12-04T05:20:59.284Z,32.30
2022-12-04T05:21:31.471Z,26.38
2022-12-04T05:22:03.593Z,28.35
2022-12-04T05:22:39.842Z,24.25
2022-12-04T05:23:11.948Z,27.35
2022-12-04T05:23:44.268Z,36.92
2022-12-04T05:24:18.929Z,27.58
2022-12-04T05:24:51.080Z,43.25
2022-12-04T05:25:23.643Z,31.67
2022-12-04T05:26:02.918Z,36.80
2022-12-04T05:26:35.101Z,38.95
2022-12-04T05:27:07.163Z,41.38
2022-12-04T05:27:41.858Z,45.75
2022-12-04T05:28:14.033Z,29.92
2022-12-04T05:28:46.221Z,33.42
2022-12-04T05:29:20.988Z,43.28
2022-12-04T05:29:57.745Z,46.85
2022-12-04T05:30:30.093Z,34.08
2022-12-04T05:31:06.489Z,37.70
2022-12-04T05:31:38.665Z,32.75
2022-12-04T05:32:10.792Z,26.73
2022-12-04T05:32:45.490Z,17.88
2022-12-04T05:33:17.559Z,41.22
2022-12-04T05:33:49.654Z,32.00
2022-12-04T05:34:24.410Z,39.20
2022-12-04T05:34:58.467Z,39.63
2022-12-04T05:35:33.226Z,36.03
2022-12-04T05:36:08.014Z,41.45
2022-12-04T05:36:40.146Z,44.10
2022-12-04T05:37:14.845Z,48.67
2022-12-04T05:37:47.008Z,43.30
2022-12-04T05:38:19.112Z,37.22
2022-12-04T05:38:53.891Z,38.92
2022-12-04T05:39:26.097Z,41.25
2022-12-04T05:39:58.564Z,35.17
2022-12-04T05:40:33.554Z,43.55
2022-12-04T05:41:07.358Z,47.95
2022-12-04T05:41:39.450Z,42.20
2022-12-04T05:42:14.561Z,35.50
2022-12-04T05:42:46.641Z,34.80
2022-12-04T05:43:18.889Z,41.67
2022-12-04T05:43:50.994Z,38.60
2022-12-04T05:44:25.715Z,66.28
2022-12-04T05:45:00.408Z,54.85
2022-12-04T05:45:32.486Z,45.00
2022-12-04T05:46:08.821Z,46.45
2022-12-04T05:46:41.075Z,37.53
2022-12-04T05:47:13.254Z,38.60
2022-12-04T05:47:48.209Z,33.85
2022-12-04T05:48:20.863Z,33.58
2022-12-04T05:48:52.930Z,31.95
2022-12-04T05:49:25.273Z,51.17
2022-12-04T05:49:59.996Z,47.67
2022-12-04T05:50:32.085Z,34.30
2022-12-04T05:51:06.709Z,29.65
2022-12-04T05:51:41.415Z,30.65
2022-12-04T05:52:13.614Z,36.65
2022-12-04T05:52:48.261Z,27.88
2022-12-04T05:53:20.353Z,36.17
2022-12-04T05:53:52.874Z,38.47
2022-12-04T05:54:27.876Z,22.98
2022-12-04T05:55:00.069Z,36.75
2022-12-04T05:55:32.163Z,38.63
2022-12-04T05:56:08.990Z,52.25
2022-12-04T05:56:41.130Z,42.33
2022-12-04T05:57:13.221Z,58.22
2022-12-04T05:57:47.912Z,47.13
2022-12-04T05:58:19.979Z,35.83
2022-12-04T05:58:52.139Z,28.10
2022-12-04T05:59:26.921Z,46.70
2022-12-04T06:00:01.636Z,30.02
2022-12-04T06:00:33.741Z,28.60
2022-12-04T06:01:16.622Z,52.22
2022-12-04T06:01:48.812Z,41.58
2022-12-04T06:02:23.629Z,30.20
2022-12-04T06:02:55.871Z,41.63
2022-12-04T06:03:28.048Z,25.05
2022-12-04T06:04:02.850Z,43.15
2022-12-04T06:04:36.848Z,22.42
2022-12-04T06:05:09.260Z,39.63
2022-12-04T06:05:44.094Z,55.42
2022-12-04T06:06:21.842Z,32.08
2022-12-04T06:06:58.016Z,44.35
2022-12-04T06:07:30.175Z,57.60
2022-12-04T06:08:02.368Z,28.30
2022-12-04T06:08:34.475Z,35.80
2022-12-04T06:09:10.707Z,27.63
2022-12-04T06:09:42.786Z,29.90
2022-12-04T06:10:14.863Z,30.52
2022-12-04T06:10:49.565Z,17.77
2022-12-04T06:11:24.220Z,37.95
2022-12-04T06:11:58.024Z,28.40
2022-12-04T06:12:32.862Z,35.30
2022-12-04T06:13:05.408Z,37.67
2022-12-04T06:13:37.512Z,42.22
2022-12-04T06:14:15.945Z,31.35
2022-12-04T06:14:48.047Z,40.22
2022-12-04T06:15:22.703Z,44.42
2022-12-04T06:15:57.954Z,48.75
2022-12-04T06:16:32.845Z,73.50
2022-12-04T06:17:07.586Z,27.42
2022-12-04T06:17:39.670Z,41.20
2022-12-04T06:18:11.765Z,41.53
2022-12-04T06:18:44.228Z,42.83
2022-12-04T06:19:21.352Z,38.13
2022-12-04T06:19:54.021Z,46.38
2022-12-04T06:20:26.557Z,63.97
2022-12-04T06:20:58.956Z,47.53
2022-12-04T06:21:35.789Z,39.28
2022-12-04T06:22:07.868Z,36.50
2022-12-04T06:22:39.964Z,41.45
2022-12-04T06:23:14.641Z,100.53
2022-12-04T06:23:47.046Z,43.53
2022-12-04T06:24:21.749Z,61.75
2022-12-04T06:24:56.428Z,32.58
2022-12-04T06:25:28.569Z,44.53
2022-12-04T06:26:06.917Z,47.65
2022-12-04T06:27:04.156Z,45.47
2022-12-04T06:27:34.660Z,61.05
2022-12-04T06:28:06.753Z,48.13
2022-12-04T06:28:41.671Z,97.85
2022-12-04T06:29:14.214Z,92.70
2022-12-04T06:29:46.567Z,97.55
2022-12-04T06:30:21.400Z,78.82
2022-12-04T06:30:56.084Z,48.55
2022-12-04T06:31:30.197Z,72.85
2022-12-04T06:32:05.111Z,65.30
2022-12-04T06:32:37.387Z,55.72
2022-12-04T06:33:09.507Z,59.17
2022-12-04T06:33:44.365Z,82.13
2022-12-04T06:34:16.794Z,42.13
2022-12-04T06:34:51.595Z,68.90
2022-12-04T06:35:26.282Z,51.60
2022-12-04T06:35:59.749Z,58.47
2022-12-04T06:36:32.452Z,59.97
2022-12-04T06:37:07.121Z,66.68
2022-12-04T06:37:39.293Z,56.92
2022-12-04T06:38:13.266Z,54.03
2022-12-04T06:38:48.198Z,66.10
2022-12-04T06:39:20.349Z,73.65
2022-12-04T06:39:52.831Z,54.55
2022-12-04T06:40:27.630Z,68.78
2022-12-04T06:41:00.511Z,87.85
2022-12-04T06:41:32.668Z,38.00
2022-12-04T06:42:07.481Z,59.20
2022-12-04T06:42:39.533Z,73.70
2022-12-04T06:43:14.238Z,54.70
2022-12-04T06:43:46.564Z,60.08
2022-12-04T06:44:18.638Z,67.43
2022-12-04T06:44:53.536Z,73.90
2022-12-04T06:45:25.793Z,75.80
2022-12-04T06:46:05.626Z,47.33
2022-12-04T06:46:46.241Z,78.85
2022-12-04T06:47:19.071Z,49.35
2022-12-04T06:47:51.152Z,68.30
2022-12-04T06:48:23.277Z,66.55
2022-12-04T06:48:59.280Z,54.60
2022-12-04T06:49:31.558Z,51.75
2022-12-04T06:50:07.105Z,48.50
2022-12-04T06:50:39.300Z,65.65
2022-12-04T06:51:13.203Z,62.05
2022-12-04T06:51:47.896Z,72.03
2022-12-04T06:52:19.973Z,70.78
2022-12-04T06:52:52.083Z,76.60
2022-12-04T06:53:24.174Z,58.33
2022-12-04T06:53:59.031Z,58.03
2022-12-04T06:54:31.227Z,72.03
2022-12-04T06:55:03.387Z,96.13
2022-12-04T06:55:38.075Z,91.15
2022-12-04T06:56:14.450Z,116.15
2022-12-04T06:56:49.129Z,101.07
2022-12-04T06:57:21.266Z,62.75
2022-12-04T06:57:53.396Z,66.47
2022-12-04T06:58:29.515Z,48.78
2022-12-04T06:59:03.276Z,69.53
2022-12-04T06:59:36.117Z,70.90
2022-12-04T07:00:12.263Z,91.80
2022-12-04T07:00:44.385Z,89.07
2022-12-04T07:01:20.764Z,56.15
2022-12-04T07:01:55.604Z,74.35
2022-12-04T07:02:27.770Z,94.28
2022-12-04T07:02:59.885Z,64.05
2022-12-04T07:03:34.649Z,77.85
2022-12-04T07:04:07.587Z,55.65
2022-12-04T07:04:39.659Z,33.67
2022-12-04T07:05:14.966Z,40.30
2022-12-04T07:05:47.418Z,46.20
2022-12-04T07:06:21.463Z,47.17
2022-12-04T07:06:56.167Z,53.42
2022-12-04T07:07:28.309Z,56.03
2022-12-04T07:08:00.542Z,40.45
2022-12-04T07:08:32.739Z,40.33
2022-12-04T07:09:09.827Z,39.88
2022-12-04T07:09:41.918Z,40.40
2022-12-04T07:10:14.007Z,32.38
2022-12-04T07:10:46.106Z,94.75
2022-12-04T07:11:21.465Z,66.90
2022-12-04T07:11:55.122Z,52.65
2022-12-04T07:12:27.233Z,35.05
2022-12-04T07:13:01.903Z,39.40
2022-12-04T07:13:34.085Z,36.78
2022-12-04T07:14:07.008Z,83.45
2022-12-04T07:14:41.773Z,98.10
2022-12-04T07:15:13.910Z,37.22
2022-12-04T07:15:46.033Z,36.55
2022-12-04T07:16:24.837Z,38.58
2022-12-04T07:16:57.156Z,46.50
2022-12-04T07:17:29.333Z,60.75
2022-12-04T07:18:04.234Z,58.90
2022-12-04T07:18:37.084Z,38.35
2022-12-04T07:19:09.419Z,66.63
2022-12-04T07:19:44.148Z,52.50
2022-12-04T07:20:16.288Z,41.05
2022-12-04T07:20:48.628Z,36.50
2022-12-04T07:21:28.053Z,43.47
2022-12-04T07:22:00.186Z,44.67
2022-12-04T07:22:32.293Z,38.65
2022-12-04T07:23:07.502Z,38.95
2022-12-04T07:23:39.746Z,42.00
2022-12-04T07:24:15.607Z,38.83
2022-12-04T07:24:50.326Z,39.00
2022-12-04T07:25:22.743Z,31.90
2022-12-04T07:25:54.902Z,39.50
2022-12-04T07:26:31.112Z,44.75
2022-12-04T07:27:03.278Z,36.60
2022-12-04T07:27:35.468Z,44.97
2022-12-04T07:28:10.218Z,35.63
2022-12-04T07:28:42.299Z,42.00
2022-12-04T07:29:14.706Z,44.47
2022-12-04T07:29:49.401Z,36.50
2022-12-04T07:30:21.498Z,40.58
2022-12-04T07:30:53.613Z,56.42
2022-12-04T07:31:32.505Z,50.50
2022-12-04T07:32:04.905Z,40.78
2022-12-04T07:32:37.047Z,32.58
2022-12-04T07:33:11.759Z,47.15
2022-12-04T07:33:44.766Z,56.97
2022-12-04T07:34:19.423Z,51.28
2022-12-04T07:34:51.651Z,37.00
2022-12-04T07:35:23.899Z,40.00
2022-12-04T07:35:59.158Z,52.85
2022-12-04T07:36:31.401Z,46.83
2022-12-04T07:37:06.225Z,54.72
2022-12-04T07:37:38.344Z,60.08
2022-12-04T07:38:10.378Z,46.45
2022-12-04T07:38:45.796Z,38.10
2022-12-04T07:39:17.875Z,54.50
2022-12-04T07:39:52.290Z,72.90
2022-12-04T07:40:27.105Z,46.88
2022-12-04T07:41:00.030Z,48.42
2022-12-04T07:41:32.343Z,42.20
2022-12-04T07:42:13.354Z,52.92
2022-12-04T07:42:45.425Z,45.42